createdAt,value
2019-02-07T00:00:12.923Z,1011.91
2019-02-07T00:01:12.916Z,1011.95
2019-02-07T00:02:12.943Z,1011.99
2019-02-07T00:03:12.878Z,1011.93
2019-02-07T00:04:12.880Z,1011.89
2019-02-07T00:05:12.874Z,1011.85
2019-02-07T00:06:12.859Z,1011.83
2019-02-07T00:07:12.905Z,1011.79
2019-02-07T00:08:12.879Z,1011.75
2019-02-07T00:09:12.819Z,1011.79
2019-02-07T00:10:12.810Z,1011.74
2019-02-07T00:11:12.798Z,1011.73
2019-02-07T00:12:12.790Z,1011.74
2019-02-07T00:13:12.787Z,1011.72
2019-02-07T00:14:12.790Z,1011.70
2019-02-07T00:15:12.756Z,1011.66
2019-02-07T00:16:12.751Z,1011.62
2019-02-07T00:17:12.746Z,1011.64
2019-02-07T00:18:12.774Z,1011.72
2019-02-07T00:19:12.742Z,1011.66
2019-02-07T00:20:12.747Z,1011.57
2019-02-07T00:21:12.687Z,1011.64
2019-02-07T00:22:12.680Z,1011.63
2019-02-07T00:23:12.659Z,1011.62
2019-02-07T00:24:12.671Z,1011.66
2019-02-07T00:25:12.680Z,1011.64
2019-02-07T00:26:12.654Z,1011.50
2019-02-07T00:27:12.641Z,1011.54
2019-02-07T00:28:12.609Z,1011.50
2019-02-07T00:29:12.594Z,1011.49
2019-02-07T00:30:12.665Z,1011.48
2019-02-07T00:31:12.584Z,1011.44
2019-02-07T00:32:12.575Z,1011.46
2019-02-07T00:33:12.559Z,1011.44
2019-02-07T00:34:12.545Z,1011.49
2019-02-07T00:35:12.541Z,1011.51
2019-02-07T00:36:12.548Z,1011.47
2019-02-07T00:37:12.519Z,1011.48
2019-02-07T00:38:12.514Z,1011.49
2019-02-07T00:39:12.504Z,1011.48
2019-02-07T00:40:12.484Z,1011.48
2019-02-07T00:41:12.503Z,1011.49
2019-02-07T00:42:12.454Z,1011.49
2019-02-07T00:43:12.455Z,1011.41
2019-02-07T00:44:12.439Z,1011.38
2019-02-07T00:45:12.438Z,1011.37
2019-02-07T00:46:12.406Z,1011.36
2019-02-07T00:47:12.409Z,1011.37
2019-02-07T00:48:12.391Z,1011.39
2019-02-07T00:49:12.399Z,1011.37
2019-02-07T00:50:12.376Z,1011.33
2019-02-07T00:51:12.393Z,1011.33
2019-02-07T00:52:12.349Z,1011.35
2019-02-07T00:53:12.344Z,1011.34
2019-02-07T00:54:12.351Z,1011.29
2019-02-07T00:55:12.314Z,1011.30
2019-02-07T00:56:12.312Z,1011.31
2019-02-07T00:57:12.326Z,1011.31
2019-02-07T00:58:12.284Z,1011.30
2019-02-07T00:59:12.288Z,1011.32
2019-02-07T01:00:12.266Z,1011.32
2019-02-07T01:01:12.246Z,1011.32
2019-02-07T01:02:12.271Z,1011.30
2019-02-07T01:03:12.236Z,1011.28
2019-02-07T01:04:12.217Z,1011.28
2019-02-07T01:05:12.195Z,1011.27
2019-02-07T01:06:12.199Z,1011.25
2019-02-07T01:07:12.200Z,1011.29
2019-02-07T01:08:12.199Z,1011.26
2019-02-07T01:09:12.169Z,1011.25
2019-02-07T01:10:12.156Z,1011.21
2019-02-07T01:11:12.146Z,1011.15
2019-02-07T01:12:12.123Z,1011.13
2019-02-07T01:13:12.138Z,1011.16
2019-02-07T01:14:12.109Z,1011.13
2019-02-07T01:15:12.094Z,1011.06
2019-02-07T01:16:12.109Z,1011.03
2019-02-07T01:17:12.111Z,1010.96
2019-02-07T01:18:12.081Z,1010.95
2019-02-07T01:19:12.056Z,1010.98
2019-02-07T01:20:12.058Z,1010.99
2019-02-07T01:21:12.055Z,1010.95
2019-02-07T01:22:12.045Z,1010.95
2019-02-07T01:23:12.016Z,1010.85
2019-02-07T01:24:12.006Z,1010.83
2019-02-07T01:25:11.995Z,1010.86
2019-02-07T01:26:11.981Z,1010.86
2019-02-07T01:27:12.008Z,1010.84
2019-02-07T01:28:11.972Z,1010.88
2019-02-07T01:29:11.961Z,1010.86
2019-02-07T01:30:11.947Z,1010.81
2019-02-07T01:31:11.938Z,1010.86
2019-02-07T01:32:11.930Z,1010.85
2019-02-07T01:33:11.910Z,1010.90
2019-02-07T01:34:11.908Z,1010.88
2019-02-07T01:35:11.893Z,1010.87
2019-02-07T01:36:11.874Z,1010.86
2019-02-07T01:37:11.892Z,1010.80
2019-02-07T01:38:11.854Z,1010.74
2019-02-07T01:39:11.842Z,1010.80
2019-02-07T01:40:11.835Z,1010.76
2019-02-07T01:41:11.830Z,1010.77
2019-02-07T01:42:11.838Z,1010.76
2019-02-07T01:43:11.819Z,1010.80
2019-02-07T01:44:11.793Z,1010.82
2019-02-07T01:45:13.374Z,1010.79
2019-02-07T01:46:11.769Z,1010.79
2019-02-07T01:47:11.787Z,1010.74
2019-02-07T01:48:11.768Z,1010.74
2019-02-07T01:49:11.744Z,1010.69
2019-02-07T01:50:11.724Z,1010.72
2019-02-07T01:51:11.720Z,1010.75
2019-02-07T01:52:11.712Z,1010.70
2019-02-07T01:53:11.719Z,1010.75
2019-02-07T01:54:11.706Z,1010.81
2019-02-07T01:55:11.685Z,1010.75
2019-02-07T01:56:11.663Z,1010.80
2019-02-07T01:57:11.650Z,1010.76
2019-02-07T01:58:11.673Z,1010.73
2019-02-07T01:59:11.633Z,1010.75
2019-02-07T02:00:11.624Z,1010.71
2019-02-07T02:01:11.616Z,1010.68
2019-02-07T02:02:11.597Z,1010.63
2019-02-07T02:03:11.594Z,1010.60
2019-02-07T02:04:11.596Z,1010.60
2019-02-07T02:05:11.561Z,1010.57
2019-02-07T02:06:11.590Z,1010.54
2019-02-07T02:07:11.561Z,1010.50
2019-02-07T02:08:11.527Z,1010.48
2019-02-07T02:09:11.517Z,1010.40
2019-02-07T02:10:11.506Z,1010.37
2019-02-07T02:11:11.532Z,1010.39
2019-02-07T02:12:11.504Z,1010.36
2019-02-07T02:13:11.481Z,1010.34
2019-02-07T02:14:11.497Z,1010.31
2019-02-07T02:15:11.485Z,1010.34
2019-02-07T02:16:11.450Z,1010.36
2019-02-07T02:17:11.506Z,1010.36
2019-02-07T02:18:11.431Z,1010.32
2019-02-07T02:19:11.420Z,1010.29
2019-02-07T02:20:11.449Z,1010.28
2019-02-07T02:21:11.414Z,1010.31
2019-02-07T02:22:11.377Z,1010.20
2019-02-07T02:23:11.380Z,1010.23
2019-02-07T02:24:11.370Z,1010.15
2019-02-07T02:25:11.362Z,1010.16
2019-02-07T02:26:11.372Z,1010.08
2019-02-07T02:27:11.341Z,1010.11
2019-02-07T02:28:11.310Z,1010.08
2019-02-07T02:29:11.308Z,1009.98
2019-02-07T02:30:11.297Z,1009.99
2019-02-07T02:31:11.302Z,1010.02
2019-02-07T02:32:11.290Z,1009.99
2019-02-07T02:33:11.276Z,1009.99
2019-02-07T02:34:11.261Z,1010.08
2019-02-07T02:35:11.248Z,1010.02
2019-02-07T02:36:11.267Z,1010.03
2019-02-07T02:37:11.217Z,1009.97
2019-02-07T02:38:11.214Z,1010.04
2019-02-07T02:39:11.222Z,1009.97
2019-02-07T02:40:11.181Z,1009.95
2019-02-07T02:41:11.177Z,1009.95
2019-02-07T02:42:11.184Z,1009.92
2019-02-07T02:43:11.162Z,1009.87
2019-02-07T02:44:11.148Z,1009.95
2019-02-07T02:45:11.159Z,1009.83
2019-02-07T02:46:11.128Z,1009.81
2019-02-07T02:47:11.150Z,1009.82
2019-02-07T02:48:11.103Z,1009.76
2019-02-07T02:49:11.093Z,1009.77
2019-02-07T02:50:11.077Z,1009.72
2019-02-07T02:51:11.063Z,1009.75
2019-02-07T02:52:11.068Z,1009.71
2019-02-07T02:53:11.074Z,1009.66
2019-02-07T02:54:11.033Z,1009.63
2019-02-07T02:55:11.045Z,1009.68
2019-02-07T02:56:11.022Z,1009.62
2019-02-07T02:57:11.033Z,1009.66
2019-02-07T02:58:11.001Z,1009.63
2019-02-07T02:59:10.988Z,1009.65
2019-02-07T03:00:10.996Z,1009.60
2019-02-07T03:01:10.962Z,1009.62
2019-02-07T03:02:10.971Z,1009.63
2019-02-07T03:03:10.939Z,1009.60
2019-02-07T03:04:10.942Z,1009.65
2019-02-07T03:05:10.948Z,1009.63
2019-02-07T03:06:10.932Z,1009.63
2019-02-07T03:07:10.908Z,1009.62
2019-02-07T03:08:10.899Z,1009.66
2019-02-07T03:09:10.917Z,1009.68
2019-02-07T03:10:10.882Z,1009.59
2019-02-07T03:11:10.862Z,1009.62
2019-02-07T03:12:10.874Z,1009.62
2019-02-07T03:13:10.843Z,1009.61
2019-02-07T03:14:10.852Z,1009.59
2019-02-07T03:15:10.808Z,1009.61
2019-02-07T03:16:10.808Z,1009.64
2019-02-07T03:17:10.802Z,1009.65
2019-02-07T03:18:10.806Z,1009.57
2019-02-07T03:19:10.780Z,1009.56
2019-02-07T03:20:10.785Z,1009.48
2019-02-07T03:21:10.748Z,1009.46
2019-02-07T03:22:10.774Z,1009.42
2019-02-07T03:23:10.742Z,1009.46
2019-02-07T03:24:10.731Z,1009.42
2019-02-07T03:25:10.728Z,1009.40
2019-02-07T03:26:10.691Z,1009.44
2019-02-07T03:27:10.727Z,1009.44
2019-02-07T03:28:10.679Z,1009.42
2019-02-07T03:29:10.682Z,1009.41
2019-02-07T03:30:10.658Z,1009.41
2019-02-07T03:31:10.663Z,1009.35
2019-02-07T03:32:10.630Z,1009.31
2019-02-07T03:33:11.139Z,1009.27
2019-02-07T03:34:10.609Z,1009.30
2019-02-07T03:35:10.606Z,1009.23
2019-02-07T03:36:10.595Z,1009.22
2019-02-07T03:37:10.595Z,1009.19
2019-02-07T03:38:10.607Z,1009.17
2019-02-07T03:39:10.568Z,1009.18
2019-02-07T03:40:10.550Z,1009.19
2019-02-07T03:41:10.552Z,1009.12
2019-02-07T03:42:10.532Z,1009.18
2019-02-07T03:43:10.545Z,1009.08
2019-02-07T03:44:10.509Z,1009.09
2019-02-07T03:45:10.489Z,1009.10
2019-02-07T03:46:10.525Z,1009.10
2019-02-07T03:47:10.463Z,1009.07
2019-02-07T03:48:10.476Z,1009.06
2019-02-07T03:49:10.490Z,1008.99
2019-02-07T03:50:10.610Z,1008.94
2019-02-07T03:51:10.419Z,1008.99
2019-02-07T03:52:10.418Z,1008.99
2019-02-07T03:53:10.434Z,1009.05
2019-02-07T03:54:10.407Z,1009.02
2019-02-07T03:55:10.385Z,1009.02
2019-02-07T03:56:10.567Z,1008.98
2019-02-07T03:57:10.378Z,1009.00
2019-02-07T03:58:10.408Z,1008.95
2019-02-07T03:59:10.343Z,1008.97
2019-02-07T04:00:10.324Z,1009.00
2019-02-07T04:01:10.315Z,1008.94
2019-02-07T04:02:10.326Z,1008.91
2019-02-07T04:03:10.293Z,1008.91
2019-02-07T04:04:10.295Z,1008.94
2019-02-07T04:05:10.283Z,1009.01
2019-02-07T04:06:10.290Z,1009.00
2019-02-07T04:07:10.287Z,1008.96
2019-02-07T04:08:10.242Z,1008.96
2019-02-07T04:09:10.233Z,1009.00
2019-02-07T04:10:10.235Z,1008.94
2019-02-07T04:11:10.213Z,1009.04
2019-02-07T04:12:10.250Z,1009.00
2019-02-07T04:13:10.246Z,1008.97
2019-02-07T04:14:10.241Z,1008.96
2019-02-07T04:15:10.178Z,1008.89
2019-02-07T04:16:15.080Z,1008.93
2019-02-07T04:17:11.188Z,1008.97
2019-02-07T04:18:10.174Z,1008.95
2019-02-07T04:19:10.188Z,1008.94
2019-02-07T04:20:10.111Z,1008.89
2019-02-07T04:21:10.108Z,1008.92
2019-02-07T04:22:10.129Z,1008.95
2019-02-07T04:23:10.126Z,1008.92
2019-02-07T04:24:10.159Z,1008.90
2019-02-07T04:25:10.084Z,1008.87
2019-02-07T04:26:10.157Z,1008.84
2019-02-07T04:27:10.119Z,1008.82
2019-02-07T04:28:10.149Z,1008.83
2019-02-07T04:29:10.083Z,1008.79
2019-02-07T04:30:10.051Z,1008.78
2019-02-07T04:31:10.067Z,1008.78
2019-02-07T04:32:09.983Z,1008.75
2019-02-07T04:33:09.989Z,1008.73
2019-02-07T04:34:09.961Z,1008.75
2019-02-07T04:35:09.993Z,1008.74
2019-02-07T04:36:09.999Z,1008.72
2019-02-07T04:37:10.218Z,1008.70
2019-02-07T04:38:09.988Z,1008.69
2019-02-07T04:39:09.927Z,1008.59
2019-02-07T04:40:12.382Z,1008.56
2019-02-07T04:41:09.909Z,1008.54
2019-02-07T04:42:10.030Z,1008.58
2019-02-07T04:43:09.939Z,1008.57
2019-02-07T04:44:09.873Z,1008.56
2019-02-07T04:45:09.869Z,1008.52
2019-02-07T04:46:09.839Z,1008.49
2019-02-07T04:47:09.854Z,1008.46
2019-02-07T04:48:09.822Z,1008.46
2019-02-07T04:49:10.139Z,1008.49
2019-02-07T04:50:09.799Z,1008.50
2019-02-07T04:51:09.810Z,1008.46
2019-02-07T04:52:09.768Z,1008.46
2019-02-07T04:53:09.815Z,1008.43
2019-02-07T04:54:09.748Z,1008.44
2019-02-07T04:55:09.743Z,1008.41
2019-02-07T04:56:09.739Z,1008.42
2019-02-07T04:57:09.806Z,1008.37
2019-02-07T04:58:09.755Z,1008.36
2019-02-07T04:59:09.784Z,1008.33
2019-02-07T05:00:10.106Z,1008.32
2019-02-07T05:01:09.671Z,1008.31
2019-02-07T05:02:09.688Z,1008.26
2019-02-07T05:03:09.736Z,1008.26
2019-02-07T05:04:09.654Z,1008.21
2019-02-07T05:05:09.633Z,1008.19
2019-02-07T05:06:09.619Z,1008.21
2019-02-07T05:07:09.622Z,1008.20
2019-02-07T05:08:09.610Z,1008.17
2019-02-07T05:09:09.617Z,1008.23
2019-02-07T05:10:09.593Z,1008.16
2019-02-07T05:11:09.589Z,1008.23
2019-02-07T05:12:09.551Z,1008.28
2019-02-07T05:13:09.542Z,1008.24
2019-02-07T05:14:09.554Z,1008.28
2019-02-07T05:15:09.528Z,1008.22
2019-02-07T05:16:09.525Z,1008.22
2019-02-07T05:17:09.603Z,1008.20
2019-02-07T05:18:09.496Z,1008.18
2019-02-07T05:19:09.516Z,1008.01
2019-02-07T05:20:09.487Z,1008.13
2019-02-07T05:21:09.690Z,1008.04
2019-02-07T05:22:09.462Z,1008.07
2019-02-07T05:23:09.445Z,1008.03
2019-02-07T05:24:09.427Z,1008.06
2019-02-07T05:25:09.448Z,1008.03
2019-02-07T05:26:09.409Z,1008.05
2019-02-07T05:27:09.397Z,1008.03
2019-02-07T05:28:09.401Z,1007.99
2019-02-07T05:29:09.388Z,1007.98
2019-02-07T05:30:09.376Z,1008.03
2019-02-07T05:31:09.394Z,1007.89
2019-02-07T05:32:09.342Z,1007.86
2019-02-07T05:33:09.351Z,1007.87
2019-02-07T05:34:09.323Z,1007.96
2019-02-07T05:35:09.317Z,1007.88
2019-02-07T05:36:09.314Z,1007.89
2019-02-07T05:37:09.293Z,1007.85
2019-02-07T05:38:09.279Z,1007.88
2019-02-07T05:39:09.271Z,1007.91
2019-02-07T05:40:09.273Z,1007.79
2019-02-07T05:41:09.290Z,1007.82
2019-02-07T05:42:09.238Z,1007.82
2019-02-07T05:43:09.228Z,1007.77
2019-02-07T05:44:09.214Z,1007.85
2019-02-07T05:45:09.203Z,1007.84
2019-02-07T05:46:09.219Z,1007.89
2019-02-07T05:47:09.181Z,1007.87
2019-02-07T05:48:09.178Z,1007.92
2019-02-07T05:49:09.174Z,1007.88
2019-02-07T05:50:09.144Z,1007.84
2019-02-07T05:51:09.150Z,1007.85
2019-02-07T05:52:09.159Z,1007.80
2019-02-07T05:53:09.157Z,1007.81
2019-02-07T05:54:09.113Z,1007.75
2019-02-07T05:55:09.108Z,1007.75
2019-02-07T05:56:09.084Z,1007.77
2019-02-07T05:57:09.120Z,1007.75
2019-02-07T05:58:09.174Z,1007.75
2019-02-07T05:59:09.071Z,1007.77
2019-02-07T06:00:09.045Z,1007.77
2019-02-07T06:01:09.105Z,1007.77
2019-02-07T06:02:09.039Z,1007.78
2019-02-07T06:03:09.033Z,1007.74
2019-02-07T06:04:08.995Z,1007.75
2019-02-07T06:05:08.997Z,1007.74
2019-02-07T06:06:08.982Z,1007.71
2019-02-07T06:07:08.978Z,1007.67
2019-02-07T06:08:08.990Z,1007.68
2019-02-07T06:09:08.940Z,1007.72
2019-02-07T06:10:08.931Z,1007.61
2019-02-07T06:11:08.921Z,1007.58
2019-02-07T06:12:08.912Z,1007.62
2019-02-07T06:13:08.904Z,1007.65
2019-02-07T06:14:08.923Z,1007.65
2019-02-07T06:15:08.907Z,1007.70
2019-02-07T06:16:08.862Z,1007.64
2019-02-07T06:17:08.928Z,1007.63
2019-02-07T06:18:08.846Z,1007.66
2019-02-07T06:19:08.833Z,1007.60
2019-02-07T06:20:08.878Z,1007.55
2019-02-07T06:21:08.835Z,1007.60
2019-02-07T06:22:08.799Z,1007.53
2019-02-07T06:23:08.793Z,1007.63
2019-02-07T06:24:08.833Z,1007.63
2019-02-07T06:25:08.809Z,1007.54
2019-02-07T06:26:08.821Z,1007.58
2019-02-07T06:27:08.759Z,1007.53
2019-02-07T06:28:08.742Z,1007.53
2019-02-07T06:29:08.746Z,1007.48
2019-02-07T06:30:08.716Z,1007.46
2019-02-07T06:31:08.723Z,1007.46
2019-02-07T06:32:08.706Z,1007.45
2019-02-07T06:33:08.713Z,1007.40
2019-02-07T06:34:08.689Z,1007.35
2019-02-07T06:35:08.673Z,1007.41
2019-02-07T06:36:08.674Z,1007.41
2019-02-07T06:37:08.640Z,1007.36
2019-02-07T06:38:08.662Z,1007.38
2019-02-07T06:39:08.630Z,1007.36
2019-02-07T06:40:08.653Z,1007.37
2019-02-07T06:41:08.609Z,1007.39
2019-02-07T06:42:08.598Z,1007.40
2019-02-07T06:43:08.578Z,1007.38
2019-02-07T06:44:08.582Z,1007.33
2019-02-07T06:45:08.563Z,1007.39
2019-02-07T06:46:08.572Z,1007.34
2019-02-07T06:47:13.394Z,1007.38
2019-02-07T06:48:09.526Z,1007.29
2019-02-07T06:49:08.517Z,1007.28
2019-02-07T06:50:08.498Z,1007.27
2019-02-07T06:51:08.752Z,1007.25
2019-02-07T06:52:08.488Z,1007.21
2019-02-07T06:53:11.118Z,1007.23
2019-02-07T06:54:08.479Z,1007.17
2019-02-07T06:55:08.446Z,1007.19
2019-02-07T06:56:08.473Z,1007.21
2019-02-07T06:57:08.440Z,1007.17
2019-02-07T06:58:08.421Z,1007.16
2019-02-07T06:59:08.426Z,1007.16
2019-02-07T07:00:08.404Z,1007.16
2019-02-07T07:01:08.392Z,1007.12
2019-02-07T07:02:08.418Z,1007.14
2019-02-07T07:03:08.376Z,1007.21
2019-02-07T07:04:08.364Z,1007.14
2019-02-07T07:05:08.390Z,1007.13
2019-02-07T07:06:08.346Z,1007.10
2019-02-07T07:07:08.344Z,1007.09
2019-02-07T07:08:08.309Z,1007.12
2019-02-07T07:09:08.301Z,1007.08
2019-02-07T07:10:08.294Z,1007.15
2019-02-07T07:11:08.303Z,1007.15
2019-02-07T07:12:08.359Z,1007.20
2019-02-07T07:13:08.278Z,1007.15
2019-02-07T07:14:08.279Z,1007.19
2019-02-07T07:15:08.234Z,1007.17
2019-02-07T07:16:08.237Z,1007.18
2019-02-07T07:17:08.236Z,1007.15
2019-02-07T07:18:08.232Z,1007.10
2019-02-07T07:19:08.208Z,1007.12
2019-02-07T07:20:08.189Z,1007.12
2019-02-07T07:21:08.165Z,1007.11
2019-02-07T07:22:08.156Z,1007.16
2019-02-07T07:23:08.165Z,1007.14
2019-02-07T07:24:08.142Z,1007.15
2019-02-07T07:25:08.137Z,1007.13
2019-02-07T07:26:09.502Z,1007.18
2019-02-07T07:27:08.195Z,1007.12
2019-02-07T07:28:08.121Z,1007.01
2019-02-07T07:29:08.092Z,1007.02
2019-02-07T07:30:08.078Z,1007.11
2019-02-07T07:31:08.071Z,1006.99
2019-02-07T07:32:08.059Z,1007.11
2019-02-07T07:33:08.071Z,1007.10
2019-02-07T07:34:08.025Z,1007.12
2019-02-07T07:35:08.018Z,1007.16
2019-02-07T07:36:08.016Z,1007.13
2019-02-07T07:37:08.002Z,1007.09
2019-02-07T07:38:07.993Z,1007.14
2019-02-07T07:39:08.005Z,1007.16
2019-02-07T07:40:08.105Z,1007.09
2019-02-07T07:41:07.966Z,1007.09
2019-02-07T07:42:07.958Z,1007.03
2019-02-07T07:43:07.935Z,1007.00
2019-02-07T07:44:07.971Z,1006.99
2019-02-07T07:45:07.919Z,1007.01
2019-02-07T07:46:07.931Z,1006.97
2019-02-07T07:47:07.885Z,1007.00
2019-02-07T07:48:07.884Z,1006.92
2019-02-07T07:49:10.430Z,1006.91
2019-02-07T07:50:07.859Z,1006.87
2019-02-07T07:51:07.852Z,1006.81
2019-02-07T07:52:07.857Z,1006.84
2019-02-07T07:53:07.830Z,1006.82
2019-02-07T07:54:07.843Z,1006.87
2019-02-07T07:55:07.799Z,1006.80
2019-02-07T07:56:07.955Z,1006.75
2019-02-07T07:57:07.809Z,1006.71
2019-02-07T07:58:07.764Z,1006.67
2019-02-07T07:59:07.801Z,1006.64
2019-02-07T08:00:07.753Z,1006.69
2019-02-07T08:01:07.751Z,1006.67
2019-02-07T08:02:07.732Z,1006.68
2019-02-07T08:03:07.722Z,1006.67
2019-02-07T08:04:07.700Z,1006.63
2019-02-07T08:05:07.707Z,1006.69
2019-02-07T08:06:07.682Z,1006.63
2019-02-07T08:07:07.673Z,1006.61
2019-02-07T08:08:07.673Z,1006.61
2019-02-07T08:09:07.658Z,1006.61
2019-02-07T08:10:07.671Z,1006.57
2019-02-07T08:11:07.634Z,1006.48
2019-02-07T08:12:07.612Z,1006.50
2019-02-07T08:13:07.601Z,1006.47
2019-02-07T08:14:07.601Z,1006.56
2019-02-07T08:15:07.595Z,1006.44
2019-02-07T08:16:07.587Z,1006.49
2019-02-07T08:17:07.565Z,1006.45
2019-02-07T08:18:07.550Z,1006.44
2019-02-07T08:19:07.538Z,1006.49
2019-02-07T08:20:07.532Z,1006.40
2019-02-07T08:21:07.547Z,1006.37
2019-02-07T08:22:07.516Z,1006.37
2019-02-07T08:23:07.502Z,1006.34
2019-02-07T08:24:07.510Z,1006.31
2019-02-07T08:25:07.476Z,1006.33
2019-02-07T08:26:07.620Z,1006.30
2019-02-07T08:27:07.450Z,1006.32
2019-02-07T08:28:07.452Z,1006.37
2019-02-07T08:29:07.435Z,1006.29
2019-02-07T08:30:07.414Z,1006.30
2019-02-07T08:31:07.459Z,1006.27
2019-02-07T08:32:07.407Z,1006.24
2019-02-07T08:33:07.398Z,1006.21
2019-02-07T08:34:07.386Z,1006.25
2019-02-07T08:35:07.376Z,1006.24
2019-02-07T08:36:07.347Z,1006.23
2019-02-07T08:37:07.354Z,1006.21
2019-02-07T08:38:07.333Z,1006.21
2019-02-07T08:39:07.336Z,1006.22
2019-02-07T08:40:07.337Z,1006.19
2019-02-07T08:41:07.308Z,1006.19
2019-02-07T08:42:07.335Z,1006.08
2019-02-07T08:43:07.282Z,1006.05
2019-02-07T08:44:07.270Z,1006.02
2019-02-07T08:45:07.258Z,1006.03
2019-02-07T08:46:07.267Z,1006.00
2019-02-07T08:47:07.241Z,1005.99
2019-02-07T08:48:07.240Z,1006.01
2019-02-07T08:49:07.209Z,1005.96
2019-02-07T08:50:07.205Z,1005.92
2019-02-07T08:51:07.193Z,1005.93
2019-02-07T08:52:07.183Z,1005.94
2019-02-07T08:53:07.286Z,1005.97
2019-02-07T08:54:07.169Z,1005.91
2019-02-07T08:55:07.158Z,1005.92
2019-02-07T08:56:07.129Z,1005.94
2019-02-07T08:57:07.123Z,1005.90
2019-02-07T08:58:07.147Z,1005.88
2019-02-07T08:59:07.099Z,1005.86
2019-02-07T09:00:07.098Z,1005.89
2019-02-07T09:01:07.090Z,1005.88
2019-02-07T09:02:07.071Z,1005.84
2019-02-07T09:03:07.059Z,1005.82
2019-02-07T09:04:07.084Z,1005.83
2019-02-07T09:05:07.051Z,1005.84
2019-02-07T09:06:07.034Z,1005.83
2019-02-07T09:07:07.030Z,1005.89
2019-02-07T09:08:07.020Z,1005.81
2019-02-07T09:09:07.007Z,1005.82
2019-02-07T09:10:06.976Z,1005.80
2019-02-07T09:11:06.975Z,1005.72
2019-02-07T09:12:06.965Z,1005.75
2019-02-07T09:13:06.964Z,1005.64
2019-02-07T09:14:06.978Z,1005.68
2019-02-07T09:15:06.940Z,1005.73
2019-02-07T09:16:06.918Z,1005.66
2019-02-07T09:17:06.905Z,1005.67
2019-02-07T09:18:11.333Z,1005.67
2019-02-07T09:19:07.911Z,1005.61
2019-02-07T09:20:06.868Z,1005.54
2019-02-07T09:21:06.873Z,1005.59
2019-02-07T09:22:06.850Z,1005.55
2019-02-07T09:23:06.837Z,1005.55
2019-02-07T09:24:06.854Z,1005.53
2019-02-07T09:25:06.821Z,1005.49
2019-02-07T09:26:06.813Z,1005.57
2019-02-07T09:27:06.807Z,1005.48
2019-02-07T09:28:06.786Z,1005.51
2019-02-07T09:29:07.909Z,1005.49
2019-02-07T09:30:06.768Z,1005.48
2019-02-07T09:31:06.930Z,1005.49
2019-02-07T09:32:06.771Z,1005.34
2019-02-07T09:33:06.835Z,1005.41
2019-02-07T09:34:06.727Z,1005.53
2019-02-07T09:35:06.797Z,1005.49
2019-02-07T09:36:06.712Z,1005.43
2019-02-07T09:37:06.698Z,1005.35
2019-02-07T09:38:06.686Z,1005.46
2019-02-07T09:39:06.676Z,1005.39
2019-02-07T09:40:06.912Z,1005.42
2019-02-07T09:41:07.009Z,1005.37
2019-02-07T09:42:06.630Z,1005.48
2019-02-07T09:43:06.628Z,1005.40
2019-02-07T09:44:06.636Z,1005.41
2019-02-07T09:45:06.619Z,1005.43
2019-02-07T09:46:07.074Z,1005.41
2019-02-07T09:47:06.616Z,1005.40
2019-02-07T09:48:06.573Z,1005.33
2019-02-07T09:49:08.926Z,1005.35
2019-02-07T09:50:06.552Z,1005.35
2019-02-07T09:51:06.584Z,1005.33
2019-02-07T09:52:06.521Z,1005.35
2019-02-07T09:53:06.540Z,1005.33
2019-02-07T09:54:06.502Z,1005.41
2019-02-07T09:55:06.492Z,1005.41
2019-02-07T09:56:06.490Z,1005.43
2019-02-07T09:57:06.506Z,1005.47
2019-02-07T09:58:06.465Z,1005.48
2019-02-07T09:59:06.461Z,1005.39
2019-02-07T10:00:06.440Z,1005.40
2019-02-07T10:01:06.431Z,1005.33
2019-02-07T10:02:06.427Z,1005.24
2019-02-07T10:03:06.404Z,1005.26
2019-02-07T10:04:06.410Z,1005.25
2019-02-07T10:05:06.406Z,1005.25
2019-02-07T10:06:06.381Z,1005.20
2019-02-07T10:07:06.385Z,1005.25
2019-02-07T10:08:06.386Z,1005.29
2019-02-07T10:09:06.349Z,1005.32
2019-02-07T10:10:06.354Z,1005.28
2019-02-07T10:11:06.337Z,1005.29
2019-02-07T10:12:06.309Z,1005.28
2019-02-07T10:13:06.305Z,1005.22
2019-02-07T10:14:06.297Z,1005.23
2019-02-07T10:15:06.264Z,1005.14
2019-02-07T10:16:06.268Z,1005.21
2019-02-07T10:17:06.255Z,1005.15
2019-02-07T10:18:06.261Z,1005.11
2019-02-07T10:19:06.265Z,1005.19
2019-02-07T10:20:06.234Z,1005.09
2019-02-07T10:21:06.202Z,1005.10
2019-02-07T10:22:06.203Z,1005.06
2019-02-07T10:23:06.191Z,1005.11
2019-02-07T10:24:06.216Z,1005.06
2019-02-07T10:25:06.166Z,1005.04
2019-02-07T10:26:06.158Z,1004.95
2019-02-07T10:27:06.141Z,1005.00
2019-02-07T10:28:06.141Z,1004.94
2019-02-07T10:29:06.151Z,1004.95
2019-02-07T10:30:06.116Z,1004.97
2019-02-07T10:31:06.124Z,1004.94
2019-02-07T10:32:06.091Z,1004.92
2019-02-07T10:33:06.072Z,1004.90
2019-02-07T10:34:06.077Z,1004.81
2019-02-07T10:35:06.056Z,1004.76
2019-02-07T10:36:06.096Z,1004.72
2019-02-07T10:37:06.038Z,1004.75
2019-02-07T10:38:06.030Z,1004.67
2019-02-07T10:39:06.115Z,1004.59
2019-02-07T10:40:06.003Z,1004.68
2019-02-07T10:41:06.000Z,1004.75
2019-02-07T10:42:06.004Z,1004.66
2019-02-07T10:43:05.972Z,1004.67
2019-02-07T10:44:05.946Z,1004.66
2019-02-07T10:45:05.949Z,1004.75
2019-02-07T10:46:05.936Z,1004.70
2019-02-07T10:47:05.919Z,1004.75
2019-02-07T10:48:05.918Z,1004.74
2019-02-07T10:49:05.906Z,1004.80
2019-02-07T10:50:05.922Z,1004.71
2019-02-07T10:51:05.881Z,1004.68
2019-02-07T10:52:05.866Z,1004.58
2019-02-07T10:53:05.860Z,1004.56
2019-02-07T10:54:05.854Z,1004.59
2019-02-07T10:55:05.860Z,1004.50
2019-02-07T10:56:05.850Z,1004.53
2019-02-07T10:57:05.922Z,1004.48
2019-02-07T10:58:05.806Z,1004.50
2019-02-07T10:59:05.791Z,1004.43
2019-02-07T11:00:05.786Z,1004.46
2019-02-07T11:01:05.815Z,1004.44
2019-02-07T11:02:05.772Z,1004.40
2019-02-07T11:03:05.756Z,1004.40
2019-02-07T11:04:05.756Z,1004.40
2019-02-07T11:05:05.725Z,1004.33
2019-02-07T11:06:05.715Z,1004.31
2019-02-07T11:07:05.738Z,1004.23
2019-02-07T11:08:05.702Z,1004.27
2019-02-07T11:09:05.689Z,1004.24
2019-02-07T11:10:05.671Z,1004.20
2019-02-07T11:11:05.678Z,1004.16
2019-02-07T11:12:05.651Z,1004.20
2019-02-07T11:13:05.640Z,1004.18
2019-02-07T11:14:05.637Z,1004.26
2019-02-07T11:15:05.625Z,1004.20
2019-02-07T11:16:05.630Z,1004.17
2019-02-07T11:17:05.587Z,1004.22
2019-02-07T11:18:05.577Z,1004.17
2019-02-07T11:19:05.568Z,1004.05
2019-02-07T11:20:05.565Z,1004.08
2019-02-07T11:21:05.555Z,1004.08
2019-02-07T11:22:05.561Z,1004.18
2019-02-07T11:23:05.534Z,1004.08
2019-02-07T11:24:05.513Z,1004.15
2019-02-07T11:25:05.510Z,1004.06
2019-02-07T11:26:05.492Z,1004.00
2019-02-07T11:27:05.515Z,1003.98
2019-02-07T11:28:10.754Z,1004.07
2019-02-07T11:29:06.455Z,1003.91
2019-02-07T11:30:05.444Z,1003.90
2019-02-07T11:31:05.436Z,1003.85
2019-02-07T11:32:05.485Z,1003.86
2019-02-07T11:33:05.442Z,1003.79
2019-02-07T11:34:05.411Z,1003.79
2019-02-07T11:35:05.401Z,1003.76
2019-02-07T11:36:05.380Z,1003.71
2019-02-07T11:37:05.365Z,1003.67
2019-02-07T11:38:05.379Z,1003.65
2019-02-07T11:39:05.344Z,1003.57
2019-02-07T11:40:05.343Z,1003.60
2019-02-07T11:41:05.350Z,1003.58
2019-02-07T11:42:05.310Z,1003.55
2019-02-07T11:43:05.344Z,1003.60
2019-02-07T11:44:05.304Z,1003.62
2019-02-07T11:45:05.284Z,1003.67
2019-02-07T11:46:05.291Z,1003.67
2019-02-07T11:47:07.548Z,1003.60
2019-02-07T11:48:05.252Z,1003.53
2019-02-07T11:49:06.955Z,1003.63
2019-02-07T11:50:05.241Z,1003.55
2019-02-07T11:51:05.219Z,1003.56
2019-02-07T11:52:05.210Z,1003.53
2019-02-07T11:53:05.224Z,1003.56
2019-02-07T11:54:05.212Z,1003.54
2019-02-07T11:55:05.175Z,1003.54
2019-02-07T11:56:05.165Z,1003.68
2019-02-07T11:57:05.147Z,1003.71
2019-02-07T11:58:05.146Z,1003.60
2019-02-07T11:59:05.147Z,1003.46
2019-02-07T12:00:05.124Z,1003.53
2019-02-07T12:01:05.109Z,1003.50
2019-02-07T12:02:09.240Z,1003.46
2019-02-07T12:03:05.096Z,1003.45
2019-02-07T12:04:05.107Z,1003.45
2019-02-07T12:05:05.063Z,1003.52